createdAt,value
2022-09-23T00:01:15.668Z,1.30
2022-09-23T00:03:45.288Z,1.33
2022-09-23T00:06:32.249Z,1.52
2022-09-23T00:08:58.808Z,1.30
2022-09-23T00:11:27.823Z,1.17
2022-09-23T00:13:59.871Z,1.30
2022-09-23T00:16:34.008Z,1.45
2022-09-23T00:19:04.674Z,1.73
2022-09-23T00:21:31.316Z,1.50
2022-09-23T00:23:57.908Z,1.58
2022-09-23T00:26:24.627Z,1.70
2022-09-23T00:28:51.523Z,1.42
2022-09-23T00:31:26.203Z,1.50
2022-09-23T00:33:58.848Z,1.65
2022-09-23T00:36:26.986Z,1.50
2022-09-23T00:38:54.053Z,1.38
2022-09-23T00:41:21.357Z,1.40
2022-09-23T00:43:57.636Z,1.52
2022-09-23T00:46:40.117Z,1.67
2022-09-23T00:49:21.161Z,1.50
2022-09-23T00:51:55.833Z,1.73
2022-09-23T00:54:27.203Z,1.60
2022-09-23T00:56:55.611Z,1.30
2022-09-23T00:59:26.216Z,1.50
2022-09-23T01:01:55.991Z,1.52
2022-09-23T01:04:24.541Z,1.40
2022-09-23T01:06:51.199Z,1.60
2022-09-23T01:09:18.422Z,1.42
2022-09-23T01:12:26.939Z,1.33
2022-09-23T01:15:01.577Z,1.52
2022-09-23T01:17:53.071Z,1.50
2022-09-23T01:21:06.899Z,1.63
2022-09-23T01:24:36.238Z,1.40
2022-09-23T01:27:32.290Z,1.35
2022-09-23T01:30:36.370Z,1.30
2022-09-23T01:33:25.236Z,1.52
2022-09-23T01:36:07.380Z,1.25
2022-09-23T01:39:08.094Z,1.50
2022-09-23T01:41:52.517Z,1.50
2022-09-23T01:44:36.153Z,1.40
2022-09-23T01:47:18.721Z,1.58
2022-09-23T01:50:00.360Z,1.20
2022-09-23T01:52:39.931Z,1.48
2022-09-23T01:55:16.991Z,1.48
2022-09-23T01:57:59.739Z,1.30
2022-09-23T02:00:30.168Z,1.73
2022-09-23T02:03:15.517Z,1.88
2022-09-23T02:06:02.733Z,1.45
2022-09-23T02:08:39.320Z,1.40
2022-09-23T02:11:12.128Z,1.33
2022-09-23T02:13:56.353Z,1.60
2022-09-23T02:16:43.612Z,1.65
2022-09-23T02:19:34.395Z,1.60
2022-09-23T02:22:12.982Z,1.58
2022-09-23T02:24:40.098Z,1.40
2022-09-23T02:27:32.262Z,1.65
2022-09-23T02:30:38.859Z,1.55
2022-09-23T02:33:15.311Z,1.60
2022-09-23T02:35:59.166Z,1.40
2022-09-23T02:38:45.278Z,1.60
2022-09-23T02:41:32.388Z,1.40
2022-09-23T02:44:15.758Z,1.50
2022-09-23T02:46:44.402Z,1.50
2022-09-23T02:49:20.594Z,1.60
2022-09-23T02:51:47.576Z,1.35
2022-09-23T02:54:22.752Z,1.45
2022-09-23T02:56:49.629Z,1.52
2022-09-23T02:59:19.396Z,1.75
2022-09-23T03:02:08.553Z,1.65
2022-09-23T03:05:07.319Z,1.52
2022-09-23T03:08:12.808Z,1.20
2022-09-23T03:11:06.778Z,1.65
2022-09-23T03:14:17.283Z,1.55
2022-09-23T03:16:50.227Z,1.45
2022-09-23T03:19:42.284Z,1.65
2022-09-23T03:22:18.332Z,1.60
2022-09-23T03:24:49.717Z,1.60
2022-09-23T03:27:25.723Z,1.60
2022-09-23T03:29:53.997Z,1.40
2022-09-23T03:32:26.644Z,1.50
2022-09-23T03:35:02.085Z,1.70
2022-09-23T03:38:17.199Z,1.50
2022-09-23T03:40:47.722Z,1.77
2022-09-23T03:43:14.438Z,1.70
2022-09-23T03:45:42.440Z,1.40
2022-09-23T03:48:09.306Z,2.05
2022-09-23T03:50:36.163Z,1.67
2022-09-23T03:53:02.783Z,1.67
2022-09-23T03:55:29.332Z,1.67
2022-09-23T03:57:56.615Z,1.67
2022-09-23T04:00:23.435Z,1.60
2022-09-23T04:02:50.015Z,1.70
2022-09-23T04:05:17.816Z,1.75
2022-09-23T04:07:44.481Z,1.60
2022-09-23T04:10:11.195Z,1.70
2022-09-23T04:12:38.225Z,1.50
2022-09-23T04:15:06.031Z,1.80
2022-09-23T04:17:32.625Z,1.70
2022-09-23T04:19:59.190Z,2.00
2022-09-23T04:22:26.211Z,1.80
2022-09-23T04:24:52.826Z,1.70
2022-09-23T04:27:19.471Z,1.73
2022-09-23T04:29:46.030Z,2.20
2022-09-23T04:32:12.610Z,1.90
2022-09-23T04:34:39.167Z,1.63
2022-09-23T04:37:05.735Z,1.80
2022-09-23T04:39:32.642Z,1.33
2022-09-23T04:41:59.591Z,1.73
2022-09-23T04:44:27.956Z,1.95
2022-09-23T04:46:55.509Z,1.70
2022-09-23T04:49:22.104Z,1.90
2022-09-23T04:51:48.675Z,1.58
2022-09-23T04:54:15.698Z,2.00
2022-09-23T04:56:42.356Z,1.67
2022-09-23T04:59:09.362Z,1.90
2022-09-23T05:01:36.504Z,1.50
2022-09-23T05:04:07.519Z,1.65
2022-09-23T05:06:35.560Z,1.60
2022-09-23T05:09:05.380Z,1.85
2022-09-23T05:11:32.442Z,1.90
2022-09-23T05:13:59.555Z,2.10
2022-09-23T05:16:27.147Z,1.50
2022-09-23T05:18:54.372Z,1.65
2022-09-23T05:21:28.759Z,1.70
2022-09-23T05:23:58.837Z,2.20
2022-09-23T05:26:28.976Z,1.67
2022-09-23T05:28:55.944Z,1.65
2022-09-23T05:31:26.224Z,1.77
2022-09-23T05:34:00.695Z,1.88
2022-09-23T05:36:34.230Z,2.10
2022-09-23T05:39:04.590Z,2.05
2022-09-23T05:41:31.746Z,3.58
2022-09-23T05:43:59.587Z,3.78
2022-09-23T05:46:29.316Z,3.25
2022-09-23T05:49:02.166Z,6.57
2022-09-23T05:51:31.109Z,2.63
2022-09-23T05:53:59.195Z,2.90
2022-09-23T05:56:28.472Z,2.50
2022-09-23T05:58:58.481Z,3.00
2022-09-23T06:01:28.365Z,4.15
2022-09-23T06:03:57.577Z,3.83
2022-09-23T06:06:31.384Z,2.83
2022-09-23T06:09:00.601Z,2.00
2022-09-23T06:11:31.240Z,1.60
2022-09-23T06:14:02.144Z,1.92
2022-09-23T06:16:33.561Z,1.73
2022-09-23T06:19:05.934Z,1.67
2022-09-23T06:21:35.788Z,1.98
2022-09-23T06:24:02.996Z,2.00
2022-09-23T06:26:32.521Z,1.90
2022-09-23T06:29:01.434Z,2.05
2022-09-23T06:31:28.834Z,1.65
2022-09-23T06:34:06.003Z,1.63
2022-09-23T06:36:43.447Z,1.30
2022-09-23T06:39:12.000Z,1.50
2022-09-23T06:41:39.099Z,1.60
2022-09-23T06:44:05.932Z,1.30
2022-09-23T06:46:32.728Z,1.33
2022-09-23T06:48:59.419Z,1.75
2022-09-23T06:51:26.472Z,1.85
2022-09-23T06:53:53.094Z,1.88
2022-09-23T06:56:21.883Z,2.58
2022-09-23T06:58:48.793Z,2.50
2022-09-23T07:01:17.186Z,1.80
2022-09-23T07:03:45.497Z,1.80
2022-09-23T07:06:12.115Z,1.70
2022-09-23T07:08:39.772Z,1.80
2022-09-23T07:11:07.311Z,1.48
2022-09-23T07:13:34.491Z,1.40
2022-09-23T07:16:02.073Z,1.48
2022-09-23T07:18:36.728Z,1.45
2022-09-23T07:21:16.920Z,1.70
2022-09-23T07:23:45.905Z,1.63
2022-09-23T07:26:16.471Z,2.13
2022-09-23T07:28:43.519Z,1.80
2022-09-23T07:31:14.202Z,2.08
2022-09-23T07:33:43.898Z,2.47
2022-09-23T07:36:17.114Z,3.05
2022-09-23T07:38:45.811Z,2.63
2022-09-23T07:41:16.777Z,2.90
2022-09-23T07:43:44.911Z,2.30
2022-09-23T07:46:16.277Z,2.00
2022-09-23T07:48:44.282Z,2.15
2022-09-23T07:51:25.574Z,2.60
2022-09-23T07:53:54.427Z,1.95
2022-09-23T07:56:24.964Z,1.85
2022-09-23T07:59:00.802Z,1.90
2022-09-23T08:01:33.634Z,1.80
2022-09-23T08:04:11.981Z,1.60
2022-09-23T08:06:43.877Z,2.10
2022-09-23T08:09:11.368Z,1.98
2022-09-23T08:11:42.366Z,1.98
2022-09-23T08:14:13.367Z,2.00
2022-09-23T08:16:41.659Z,1.98
2022-09-23T08:19:08.920Z,1.92
2022-09-23T08:21:35.875Z,1.90
2022-09-23T08:24:02.657Z,1.60
2022-09-23T08:26:29.323Z,1.50
2022-09-23T08:28:56.362Z,1.60
2022-09-23T08:31:23.827Z,1.90
2022-09-23T08:33:57.972Z,1.50
2022-09-23T08:36:25.770Z,2.03
2022-09-23T08:38:52.905Z,2.13
2022-09-23T08:41:28.601Z,1.90
2022-09-23T08:44:03.489Z,1.83
2022-09-23T08:46:38.004Z,1.63
2022-09-23T08:49:07.326Z,1.20
2022-09-23T08:51:46.128Z,1.42
2022-09-23T08:54:13.974Z,1.30
2022-09-23T08:56:44.740Z,1.10
2022-09-23T08:59:28.650Z,1.45
2022-09-23T09:02:05.226Z,1.40
2022-09-23T09:04:45.912Z,1.40
2022-09-23T09:07:38.802Z,1.40
2022-09-23T09:10:18.777Z,1.42
2022-09-23T09:12:54.427Z,1.83
2022-09-23T09:15:27.415Z,1.40
2022-09-23T09:18:07.476Z,1.58
2022-09-23T09:21:13.895Z,1.70
2022-09-23T09:24:16.562Z,1.98
2022-09-23T09:26:43.190Z,2.00
2022-09-23T09:29:35.500Z,1.80
2022-09-23T09:32:58.095Z,1.80
2022-09-23T09:35:36.665Z,1.85
2022-09-23T09:38:05.654Z,1.60
2022-09-23T09:40:34.524Z,1.70
2022-09-23T09:43:04.548Z,1.90
2022-09-23T09:46:21.646Z,1.73
2022-09-23T09:48:59.814Z,1.90
2022-09-23T09:51:29.246Z,1.92
2022-09-23T09:54:23.165Z,1.80
2022-09-23T09:56:51.666Z,1.63
2022-09-23T09:59:27.687Z,1.95
2022-09-23T10:02:27.818Z,1.75
2022-09-23T10:05:00.147Z,2.13
2022-09-23T10:07:30.849Z,1.77
2022-09-23T10:10:01.897Z,2.03
2022-09-23T10:12:46.764Z,1.80
2022-09-23T10:15:44.710Z,2.10
2022-09-23T10:18:28.923Z,1.90
2022-09-23T10:21:06.957Z,3.05
2022-09-23T10:23:38.713Z,2.03
2022-09-23T10:26:08.082Z,2.38
2022-09-23T10:28:55.486Z,1.90
2022-09-23T10:31:28.851Z,2.00
2022-09-23T10:34:00.696Z,1.80
2022-09-23T10:36:30.975Z,1.83
2022-09-23T10:39:32.359Z,1.77
2022-09-23T10:42:30.924Z,2.35
2022-09-23T10:45:49.618Z,1.65
2022-09-23T10:48:36.136Z,1.90
2022-09-23T10:51:14.416Z,1.90
2022-09-23T10:54:19.124Z,2.28
2022-09-23T10:57:02.195Z,2.17
2022-09-23T11:00:01.109Z,2.30
2022-09-23T11:03:00.728Z,1.90
2022-09-23T11:05:51.414Z,2.13
2022-09-23T11:08:36.246Z,2.08
2022-09-23T11:11:26.101Z,1.98
2022-09-23T11:14:05.060Z,1.70
2022-09-23T11:16:47.394Z,1.30
2022-09-23T11:19:45.429Z,1.50
2022-09-23T11:22:38.354Z,1.60
2022-09-23T11:25:31.108Z,1.52
2022-09-23T11:28:17.691Z,1.35
2022-09-23T11:31:06.230Z,1.40
2022-09-23T11:34:01.510Z,1.50
2022-09-23T11:36:38.198Z,1.60
2022-09-23T11:39:31.106Z,1.30
2022-09-23T11:41:59.972Z,1.50
2022-09-23T11:44:35.536Z,1.27
2022-09-23T11:47:20.746Z,1.50
2022-09-23T11:50:10.694Z,1.65
2022-09-23T11:52:48.069Z,1.90
2022-09-23T11:55:25.421Z,1.40
2022-09-23T11:57:59.883Z,1.60
2022-09-23T12:00:34.275Z,1.60
2022-09-23T12:03:44.509Z,1.40
2022-09-23T12:06:19.770Z,1.80
2022-09-23T12:08:47.096Z,1.50
2022-09-23T12:11:37.647Z,1.52
2022-09-23T12:14:15.805Z,1.85
2022-09-23T12:17:10.670Z,1.40
2022-09-23T12:20:19.497Z,1.25
2022-09-23T12:23:07.692Z,1.50
2022-09-23T12:25:54.648Z,1.38
2022-09-23T12:28:27.750Z,1.27
2022-09-23T12:30:58.589Z,1.45
2022-09-23T12:33:33.956Z,1.38
2022-09-23T12:36:09.566Z,2.63
2022-09-23T12:39:02.957Z,3.00
2022-09-23T12:41:37.416Z,2.35
2022-09-23T12:44:41.612Z,1.60
2022-09-23T12:47:27.933Z,1.42
2022-09-23T12:49:56.493Z,1.45
2022-09-23T12:52:33.095Z,1.52
2022-09-23T12:55:38.341Z,1.83
2022-09-23T12:58:56.802Z,1.50
2022-09-23T13:01:25.827Z,1.77
2022-09-23T13:04:15.144Z,1.90
2022-09-23T13:06:56.439Z,2.13
2022-09-23T13:09:31.198Z,1.60
2022-09-23T13:12:01.791Z,1.40
2022-09-23T13:14:32.539Z,1.40
2022-09-23T13:16:59.569Z,1.80
2022-09-23T13:19:26.170Z,1.55
2022-09-23T13:22:08.852Z,1.70
2022-09-23T13:24:45.034Z,1.42
2022-09-23T13:27:19.017Z,1.75
2022-09-23T13:30:16.546Z,2.03
2022-09-23T13:33:11.038Z,1.90
2022-09-23T13:35:43.257Z,1.60
2022-09-23T13:38:18.765Z,1.88
2022-09-23T13:40:46.210Z,1.48
2022-09-23T13:43:41.467Z,1.58
2022-09-23T13:46:23.623Z,1.40
2022-09-23T13:48:55.089Z,2.00
2022-09-23T13:51:32.101Z,1.70
2022-09-23T13:54:01.798Z,1.60
2022-09-23T13:56:31.760Z,1.65
2022-09-23T13:59:25.605Z,1.98
2022-09-23T14:02:16.848Z,5.82
2022-09-23T14:04:44.306Z,7.00
2022-09-23T14:07:16.713Z,4.30
2022-09-23T14:09:49.826Z,3.90
2022-09-23T14:12:22.094Z,3.33
2022-09-23T14:14:51.545Z,2.13
2022-09-23T14:17:22.731Z,1.60
2022-09-23T14:19:50.609Z,1.27
2022-09-23T14:22:29.029Z,1.30
2022-09-23T14:24:57.553Z,1.50
2022-09-23T14:27:33.282Z,1.65
2022-09-23T14:30:02.759Z,1.38
2022-09-23T14:32:30.290Z,1.08
2022-09-23T14:34:59.688Z,1.20
2022-09-23T14:37:57.276Z,1.38
2022-09-23T14:40:33.494Z,1.20
2022-09-23T14:43:25.984Z,1.10
2022-09-23T14:45:56.916Z,1.30
2022-09-23T14:48:28.506Z,1.50
2022-09-23T14:51:04.932Z,1.48
2022-09-23T14:53:46.253Z,1.40
2022-09-23T14:56:16.480Z,1.70
2022-09-23T14:58:52.626Z,1.40
2022-09-23T15:01:34.620Z,1.50
2022-09-23T15:04:17.091Z,1.50
2022-09-23T15:07:03.452Z,1.90
2022-09-23T15:09:36.334Z,1.50
2022-09-23T15:12:18.765Z,1.45
2022-09-23T15:14:51.646Z,1.60
2022-09-23T15:17:23.953Z,1.58
2022-09-23T15:19:58.951Z,1.77
2022-09-23T15:22:26.043Z,1.30
2022-09-23T15:25:08.456Z,1.38
2022-09-23T15:27:35.454Z,1.20
2022-09-23T15:30:15.337Z,1.48
2022-09-23T15:32:46.596Z,1.55
2022-09-23T15:35:19.036Z,1.38
2022-09-23T15:37:49.133Z,5.18
2022-09-23T15:40:29.184Z,2.05
2022-09-23T15:43:02.332Z,1.60
2022-09-23T15:45:33.043Z,1.60
2022-09-23T15:48:11.415Z,1.30
2022-09-23T15:50:39.244Z,1.75
2022-09-23T15:53:06.606Z,1.10
2022-09-23T15:55:33.708Z,1.30
2022-09-23T15:58:00.990Z,1.48
2022-09-23T16:00:27.710Z,1.25
2022-09-23T16:02:54.588Z,1.35
2022-09-23T16:05:40.030Z,1.10
2022-09-23T16:08:09.955Z,1.40
2022-09-23T16:10:37.756Z,1.35
2022-09-23T16:13:11.557Z,1.20
2022-09-23T16:15:41.185Z,1.42
2022-09-23T16:18:09.501Z,1.27
2022-09-23T16:20:44.568Z,0.90
2022-09-23T16:23:33.954Z,1.20
2022-09-23T16:26:05.358Z,1.13
2022-09-23T16:28:31.972Z,1.30
2022-09-23T16:30:58.604Z,1.10
2022-09-23T16:33:25.174Z,1.42
2022-09-23T16:35:51.793Z,2.13
2022-09-23T16:38:18.470Z,1.33
2022-09-23T16:40:47.318Z,1.45
2022-09-23T16:43:14.353Z,1.88
2022-09-23T16:45:41.038Z,2.08
2022-09-23T16:48:07.682Z,1.75
2022-09-23T16:50:34.459Z,1.55
2022-09-23T16:53:01.547Z,1.40
2022-09-23T16:55:28.327Z,1.30
2022-09-23T16:57:55.535Z,1.60
2022-09-23T17:00:41.804Z,1.80
2022-09-23T17:03:31.303Z,1.38
2022-09-23T17:05:58.313Z,1.35
2022-09-23T17:08:24.956Z,1.65
2022-09-23T17:10:58.479Z,1.30
2022-09-23T17:13:28.104Z,1.52
2022-09-23T17:15:55.251Z,1.25
2022-09-23T17:18:22.047Z,1.92
2022-09-23T17:21:03.485Z,1.45
2022-09-23T17:23:31.647Z,1.50
2022-09-23T17:25:59.744Z,1.60
2022-09-23T17:28:26.679Z,1.33
2022-09-23T17:30:58.258Z,1.52
2022-09-23T17:33:27.634Z,1.60
2022-09-23T17:35:56.665Z,2.45
2022-09-23T17:38:28.683Z,2.15
2022-09-23T17:40:58.888Z,2.05
2022-09-23T17:43:31.372Z,1.65
2022-09-23T17:46:09.929Z,1.80
2022-09-23T17:48:41.160Z,1.70
2022-09-23T17:51:15.367Z,3.05
2022-09-23T17:53:45.209Z,6.10
2022-09-23T17:56:26.744Z,4.82
2022-09-23T17:58:54.015Z,3.85
2022-09-23T18:01:24.970Z,3.22
2022-09-23T18:04:04.342Z,1.83
2022-09-23T18:06:37.656Z,1.77
2022-09-23T18:09:07.567Z,1.70
2022-09-23T18:11:40.275Z,2.13
2022-09-23T18:14:12.027Z,1.80
2022-09-23T18:16:42.393Z,1.90
2022-09-23T18:19:13.700Z,1.73
2022-09-23T18:21:44.998Z,1.50
2022-09-23T18:26:59.733Z,2.10
2022-09-23T18:29:26.576Z,1.83
2022-09-23T18:31:53.422Z,2.03
2022-09-23T18:34:20.382Z,2.50
2022-09-23T18:36:47.307Z,2.63
2022-09-23T18:39:14.223Z,2.60
2022-09-23T18:41:41.123Z,2.00
2022-09-23T18:44:08.593Z,2.03
2022-09-23T18:46:35.358Z,1.90
2022-09-23T18:49:20.495Z,2.03
2022-09-23T18:51:52.428Z,2.00
2022-09-23T18:54:19.752Z,2.45
2022-09-23T18:56:46.624Z,1.83
2022-09-23T18:59:19.374Z,2.63
2022-09-23T19:01:48.199Z,3.20
2022-09-23T19:04:19.292Z,5.18
2022-09-23T19:06:46.471Z,4.00
2022-09-23T19:09:15.314Z,4.70
2022-09-23T19:11:42.798Z,3.08
2022-09-23T19:14:11.548Z,2.17
2022-09-23T19:16:39.619Z,3.70
2022-09-23T19:19:07.056Z,3.65
2022-09-23T19:21:34.592Z,2.15
2022-09-23T19:24:07.181Z,2.40
2022-09-23T19:26:40.141Z,2.10
2022-09-23T19:29:08.806Z,2.05
2022-09-23T19:31:41.678Z,1.80
2022-09-23T19:34:14.010Z,1.80
2022-09-23T19:36:44.421Z,1.80
2022-09-23T19:39:26.853Z,1.98
2022-09-23T19:41:55.630Z,1.90
2022-09-23T19:44:24.963Z,1.83
2022-09-23T19:46:56.322Z,6.07
2022-09-23T19:49:24.920Z,3.55
2022-09-23T19:51:54.973Z,2.13
2022-09-23T19:54:21.569Z,2.20
2022-09-23T19:56:49.499Z,2.03
2022-09-23T19:59:18.794Z,1.80
2022-09-23T20:01:47.319Z,2.08
2022-09-23T20:04:15.472Z,2.42
2022-09-23T20:06:42.073Z,2.40
2022-09-23T20:09:08.704Z,2.42
2022-09-23T20:11:36.126Z,2.72
2022-09-23T20:14:04.768Z,2.70
2022-09-23T20:16:34.910Z,1.80
2022-09-23T20:19:02.756Z,2.08
2022-09-23T20:21:29.846Z,2.67
2022-09-23T20:23:58.070Z,2.90
2022-09-23T20:26:43.655Z,2.28
2022-09-23T20:29:10.947Z,2.30
2022-09-23T20:31:40.124Z,2.33
2022-09-23T20:34:07.912Z,1.92
2022-09-23T20:36:35.887Z,1.90
2022-09-23T20:39:07.874Z,1.95
2022-09-23T20:41:37.716Z,1.58
2022-09-23T20:44:09.552Z,1.80
2022-09-23T20:46:36.763Z,1.63
2022-09-23T20:49:04.373Z,2.05
2022-09-23T20:51:33.641Z,1.90
2022-09-23T20:54:00.693Z,1.70
2022-09-23T20:56:28.503Z,1.83
2022-09-23T20:59:02.388Z,2.10
2022-09-23T21:01:32.156Z,2.30
2022-09-23T21:03:58.730Z,2.45
2022-09-23T21:06:25.996Z,2.90
2022-09-23T21:08:54.440Z,2.70
2022-09-23T21:11:21.885Z,2.97
2022-09-23T21:13:51.588Z,2.63
2022-09-23T21:16:24.391Z,3.90
2022-09-23T21:18:51.985Z,4.78
2022-09-23T21:21:21.930Z,3.80
2022-09-23T21:23:49.666Z,2.55
2022-09-23T21:26:23.098Z,1.85
2022-09-23T21:28:52.928Z,2.92
2022-09-23T21:31:23.245Z,2.35
2022-09-23T21:34:02.321Z,2.20
2022-09-23T21:36:32.618Z,1.85
2022-09-23T21:39:01.588Z,1.45
2022-09-23T21:41:28.449Z,1.77
2022-09-23T21:43:56.177Z,1.30
2022-09-23T21:46:24.021Z,1.50
2022-09-23T21:48:53.559Z,1.73
2022-09-23T21:51:27.852Z,2.08
2022-09-23T21:53:56.745Z,2.28
2022-09-23T21:56:26.314Z,2.00
2022-09-23T21:58:54.925Z,1.80
2022-09-23T22:01:27.829Z,2.45
2022-09-23T22:04:09.146Z,2.28
2022-09-23T22:06:38.238Z,1.90
2022-09-23T22:09:09.448Z,1.45
2022-09-23T22:11:56.494Z,1.70
2022-09-23T22:14:27.313Z,1.58
2022-09-23T22:16:58.947Z,2.80
2022-09-23T22:19:28.684Z,2.50
2022-09-23T22:21:56.002Z,2.10
2022-09-23T22:24:22.984Z,1.73
2022-09-23T22:26:50.128Z,1.80
2022-09-23T22:29:35.935Z,2.22
2022-09-23T22:32:24.025Z,2.20
2022-09-23T22:34:52.124Z,2.03
2022-09-23T22:37:33.999Z,1.90
2022-09-23T22:40:10.613Z,1.98
2022-09-23T22:42:37.379Z,1.77
2022-09-23T22:45:07.984Z,1.80
2022-09-23T22:47:37.819Z,1.80
2022-09-23T22:50:06.685Z,2.67
2022-09-23T22:52:33.721Z,2.22
2022-09-23T22:55:00.716Z,2.00
2022-09-23T22:57:27.804Z,2.28
2022-09-23T22:59:54.517Z,2.67
2022-09-23T23:02:23.564Z,2.10
2022-09-23T23:04:50.644Z,2.00
2022-09-23T23:07:20.745Z,2.20
2022-09-23T23:09:51.709Z,2.53
2022-09-23T23:12:20.115Z,2.40
2022-09-23T23:14:48.075Z,1.77
2022-09-23T23:17:17.016Z,1.92
2022-09-23T23:19:43.676Z,1.73
2022-09-23T23:22:10.316Z,2.10
2022-09-23T23:24:36.959Z,1.60
2022-09-23T23:27:03.656Z,1.88
2022-09-23T23:29:30.256Z,1.88
2022-09-23T23:31:56.892Z,2.70
2022-09-23T23:34:24.412Z,1.60
2022-09-23T23:36:54.345Z,1.80
2022-09-23T23:39:25.541Z,2.05
2022-09-23T23:41:57.426Z,2.08
2022-09-23T23:44:26.096Z,1.63
2022-09-23T23:46:53.949Z,1.60
2022-09-23T23:49:21.382Z,1.60
2022-09-23T23:51:48.471Z,1.67
2022-09-23T23:54:15.603Z,1.33
2022-09-23T23:56:42.585Z,1.52
2022-09-23T23:59:09.400Z,1.60
